sensor_id;sensor_type;location;lat;lon;timestamp;temperature;humidity
41762;DHT22;27441;50.860;0.258;2022-12-18T00:01:31;-0.40;99.90
41762;DHT22;27441;50.860;0.258;2022-12-18T00:03:57;-0.30;99.90
41762;DHT22;27441;50.860;0.258;2022-12-18T00:06:24;-0.30;99.90
41762;DHT22;27441;50.860;0.258;2022-12-18T00:08:49;-0.20;99.90
41762;DHT22;27441;50.860;0.258;2022-12-18T00:11:17;0.00;99.90
41762;DHT22;27441;50.860;0.258;2022-12-18T00:13:43;0.10;99.90
41762;DHT22;27441;50.860;0.258;2022-12-18T00:16:11;0.20;99.90
41762;DHT22;27441;50.860;0.258;2022-12-18T00:18:36;0.20;99.90
41762;DHT22;27441;50.860;0.258;2022-12-18T00:21:03;0.30;99.90
41762;DHT22;27441;50.860;0.258;2022-12-18T00:23:29;0.20;99.90
41762;DHT22;27441;50.860;0.258;2022-12-18T00:25:58;0.30;99.90
41762;DHT22;27441;50.860;0.258;2022-12-18T00:28:23;0.30;99.90
41762;DHT22;27441;50.860;0.258;2022-12-18T00:30:49;0.30;99.90
41762;DHT22;27441;50.860;0.258;2022-12-18T00:33:17;0.20;99.90
41762;DHT22;27441;50.860;0.258;2022-12-18T00:35:42;0.30;99.90
41762;DHT22;27441;50.860;0.258;2022-12-18T00:38:08;0.30;99.90
41762;DHT22;27441;50.860;0.258;2022-12-18T00:40:34;0.20;99.90
41762;DHT22;27441;50.860;0.258;2022-12-18T00:42:59;0.10;99.90
41762;DHT22;27441;50.860;0.258;2022-12-18T00:45:26;0.10;99.90
41762;DHT22;27441;50.860;0.258;2022-12-18T00:47:52;0.00;99.90
41762;DHT22;27441;50.860;0.258;2022-12-18T00:50:17;0.10;99.90
41762;DHT22;27441;50.860;0.258;2022-12-18T00:52:43;0.10;99.90
41762;DHT22;27441;50.860;0.258;2022-12-18T00:55:09;0.10;99.90
41762;DHT22;27441;50.860;0.258;2022-12-18T00:57:35;0.00;99.90
41762;DHT22;27441;50.860;0.258;2022-12-18T01:00:00;0.10;99.90
41762;DHT22;27441;50.860;0.258;2022-12-18T01:02:26;0.10;99.90
41762;DHT22;27441;50.860;0.258;2022-12-18T01:04:52;0.10;99.90
41762;DHT22;27441;50.860;0.258;2022-12-18T01:07:17;0.10;99.90
41762;DHT22;27441;50.860;0.258;2022-12-18T01:09:43;0.20;99.90
41762;DHT22;27441;50.860;0.258;2022-12-18T01:12:08;0.30;99.90
41762;DHT22;27441;50.860;0.258;2022-12-18T01:14:34;0.30;99.90
41762;DHT22;27441;50.860;0.258;2022-12-18T01:17:00;0.30;99.90
41762;DHT22;27441;50.860;0.258;2022-12-18T01:19:27;0.40;99.90
41762;DHT22;27441;50.860;0.258;2022-12-18T01:21:53;0.40;99.90
41762;DHT22;27441;50.860;0.258;2022-12-18T01:24:19;0.50;99.90
41762;DHT22;27441;50.860;0.258;2022-12-18T01:26:45;0.60;99.90
41762;DHT22;27441;50.860;0.258;2022-12-18T01:29:10;0.70;99.90
41762;DHT22;27441;50.860;0.258;2022-12-18T01:31:36;0.60;99.90
41762;DHT22;27441;50.860;0.258;2022-12-18T01:34:03;0.50;99.90
41762;DHT22;27441;50.860;0.258;2022-12-18T01:36:30;0.50;99.90
41762;DHT22;27441;50.860;0.258;2022-12-18T01:38:56;0.50;99.90
41762;DHT22;27441;50.860;0.258;2022-12-18T01:41:23;0.60;99.90
41762;DHT22;27441;50.860;0.258;2022-12-18T01:43:55;0.70;99.90
41762;DHT22;27441;50.860;0.258;2022-12-18T01:46:22;0.80;99.90
41762;DHT22;27441;50.860;0.258;2022-12-18T01:48:49;0.80;99.90
41762;DHT22;27441;50.860;0.258;2022-12-18T01:51:15;0.80;99.90
41762;DHT22;27441;50.860;0.258;2022-12-18T01:53:42;0.80;99.90
41762;DHT22;27441;50.860;0.258;2022-12-18T01:56:11;0.90;99.90
41762;DHT22;27441;50.860;0.258;2022-12-18T02:01:09;0.90;99.90
41762;DHT22;27441;50.860;0.258;2022-12-18T02:03:35;0.90;99.90
41762;DHT22;27441;50.860;0.258;2022-12-18T02:06:03;0.90;99.90
41762;DHT22;27441;50.860;0.258;2022-12-18T02:13:30;0.90;99.90
41762;DHT22;27441;50.860;0.258;2022-12-18T02:18:31;1.00;99.90
41762;DHT22;27441;50.860;0.258;2022-12-18T02:23:38;1.10;99.90
41762;DHT22;27441;50.860;0.258;2022-12-18T02:26:17;1.20;99.90
41762;DHT22;27441;50.860;0.258;2022-12-18T02:28:58;1.20;99.90
41762;DHT22;27441;50.860;0.258;2022-12-18T02:31:27;1.20;99.90
41762;DHT22;27441;50.860;0.258;2022-12-18T02:33:54;1.20;99.90
41762;DHT22;27441;50.860;0.258;2022-12-18T02:36:21;1.30;99.90
41762;DHT22;27441;50.860;0.258;2022-12-18T02:38:48;1.20;99.90
41762;DHT22;27441;50.860;0.258;2022-12-18T02:41:14;1.20;99.90
41762;DHT22;27441;50.860;0.258;2022-12-18T02:43:40;1.30;99.90
41762;DHT22;27441;50.860;0.258;2022-12-18T02:46:25;1.30;99.90
41762;DHT22;27441;50.860;0.258;2022-12-18T02:48:51;1.40;99.90
41762;DHT22;27441;50.860;0.258;2022-12-18T02:51:25;1.40;99.90
41762;DHT22;27441;50.860;0.258;2022-12-18T02:53:56;1.40;99.90
41762;DHT22;27441;50.860;0.258;2022-12-18T02:56:26;1.40;99.90
41762;DHT22;27441;50.860;0.258;2022-12-18T03:01:24;1.50;99.90
41762;DHT22;27441;50.860;0.258;2022-12-18T03:03:59;1.50;99.90
41762;DHT22;27441;50.860;0.258;2022-12-18T03:06:27;1.50;99.90
41762;DHT22;27441;50.860;0.258;2022-12-18T03:08:57;1.60;99.90
41762;DHT22;27441;50.860;0.258;2022-12-18T03:11:23;1.60;99.90
41762;DHT22;27441;50.860;0.258;2022-12-18T03:14:10;1.50;99.90
41762;DHT22;27441;50.860;0.258;2022-12-18T03:16:38;1.50;99.90
41762;DHT22;27441;50.860;0.258;2022-12-18T03:19:08;1.50;99.90
41762;DHT22;27441;50.860;0.258;2022-12-18T03:21:38;1.50;99.90
41762;DHT22;27441;50.860;0.258;2022-12-18T03:24:06;1.60;99.90
41762;DHT22;27441;50.860;0.258;2022-12-18T03:26:33;1.70;99.90
41762;DHT22;27441;50.860;0.258;2022-12-18T03:29:02;1.70;99.90
41762;DHT22;27441;50.860;0.258;2022-12-18T03:31:29;1.70;99.90
41762;DHT22;27441;50.860;0.258;2022-12-18T03:33:57;1.80;99.90
41762;DHT22;27441;50.860;0.258;2022-12-18T03:36:24;1.90;99.90
41762;DHT22;27441;50.860;0.258;2022-12-18T03:38:49;1.90;99.90
41762;DHT22;27441;50.860;0.258;2022-12-18T03:47:22;1.80;99.90
41762;DHT22;27441;50.860;0.258;2022-12-18T03:51:48;1.70;99.90
41762;DHT22;27441;50.860;0.258;2022-12-18T03:54:15;1.70;99.90
41762;DHT22;27441;50.860;0.258;2022-12-18T03:56:42;1.70;99.90
41762;DHT22;27441;50.860;0.258;2022-12-18T03:59:09;1.80;99.90
41762;DHT22;27441;50.860;0.258;2022-12-18T04:01:40;1.90;99.90
41762;DHT22;27441;50.860;0.258;2022-12-18T04:04:08;1.90;99.90
41762;DHT22;27441;50.860;0.258;2022-12-18T04:06:34;1.90;99.90
41762;DHT22;27441;50.860;0.258;2022-12-18T04:09:00;1.90;99.90
41762;DHT22;27441;50.860;0.258;2022-12-18T04:11:26;1.90;99.90
41762;DHT22;27441;50.860;0.258;2022-12-18T04:13:55;1.90;99.90
41762;DHT22;27441;50.860;0.258;2022-12-18T04:16:20;1.90;99.90
41762;DHT22;27441;50.860;0.258;2022-12-18T04:18:46;1.90;99.90
41762;DHT22;27441;50.860;0.258;2022-12-18T04:21:11;1.90;99.90
41762;DHT22;27441;50.860;0.258;2022-12-18T04:23:37;2.00;99.90
41762;DHT22;27441;50.860;0.258;2022-12-18T04:26:03;2.00;99.90
41762;DHT22;27441;50.860;0.258;2022-12-18T04:28:28;2.10;99.90
41762;DHT22;27441;50.860;0.258;2022-12-18T04:30:54;2.00;99.90
41762;DHT22;27441;50.860;0.258;2022-12-18T04:33:19;2.20;99.90
41762;DHT22;27441;50.860;0.258;2022-12-18T04:35:45;2.20;99.90
41762;DHT22;27441;50.860;0.258;2022-12-18T04:38:11;2.20;99.90
41762;DHT22;27441;50.860;0.258;2022-12-18T04:40:37;2.10;99.90
41762;DHT22;27441;50.860;0.258;2022-12-18T04:43:03;2.00;99.90
41762;DHT22;27441;50.860;0.258;2022-12-18T04:45:29;2.00;99.90
41762;DHT22;27441;50.860;0.258;2022-12-18T04:47:56;2.10;99.90
41762;DHT22;27441;50.860;0.258;2022-12-18T04:50:22;2.20;99.90
41762;DHT22;27441;50.860;0.258;2022-12-18T04:52:47;2.10;99.90
41762;DHT22;27441;50.860;0.258;2022-12-18T04:55:13;2.20;99.90
41762;DHT22;27441;50.860;0.258;2022-12-18T04:57:38;2.20;99.90
41762;DHT22;27441;50.860;0.258;2022-12-18T05:00:04;2.20;99.90
41762;DHT22;27441;50.860;0.258;2022-12-18T05:02:31;2.20;99.90
41762;DHT22;27441;50.860;0.258;2022-12-18T05:04:57;2.10;99.90
41762;DHT22;27441;50.860;0.258;2022-12-18T05:07:22;2.10;99.90
41762;DHT22;27441;50.860;0.258;2022-12-18T05:09:48;2.00;99.90
41762;DHT22;27441;50.860;0.258;2022-12-18T05:12:13;2.00;99.90
41762;DHT22;27441;50.860;0.258;2022-12-18T05:14:39;2.00;99.90
41762;DHT22;27441;50.860;0.258;2022-12-18T05:17:05;2.00;99.90
41762;DHT22;27441;50.860;0.258;2022-12-18T05:19:30;2.00;99.90
41762;DHT22;27441;50.860;0.258;2022-12-18T05:21:56;2.00;99.90
41762;DHT22;27441;50.860;0.258;2022-12-18T05:24:22;2.10;99.90
41762;DHT22;27441;50.860;0.258;2022-12-18T05:26:47;2.00;99.90
41762;DHT22;27441;50.860;0.258;2022-12-18T05:29:13;2.00;99.90
41762;DHT22;27441;50.860;0.258;2022-12-18T05:31:38;1.90;99.90
41762;DHT22;27441;50.860;0.258;2022-12-18T05:34:04;1.90;99.90
41762;DHT22;27441;50.860;0.258;2022-12-18T05:36:30;1.90;99.90
41762;DHT22;27441;50.860;0.258;2022-12-18T05:38:56;1.80;99.90
41762;DHT22;27441;50.860;0.258;2022-12-18T05:41:21;1.90;99.90
41762;DHT22;27441;50.860;0.258;2022-12-18T05:43:47;1.80;99.90
41762;DHT22;27441;50.860;0.258;2022-12-18T05:46:14;1.90;99.90
41762;DHT22;27441;50.860;0.258;2022-12-18T05:48:41;1.90;99.90
41762;DHT22;27441;50.860;0.258;2022-12-18T05:51:07;1.90;99.90
41762;DHT22;27441;50.860;0.258;2022-12-18T05:53:33;1.90;99.90
41762;DHT22;27441;50.860;0.258;2022-12-18T05:56:00;2.00;99.90
41762;DHT22;27441;50.860;0.258;2022-12-18T05:58:26;2.00;99.90
41762;DHT22;27441;50.860;0.258;2022-12-18T06:00:52;2.00;99.90
41762;DHT22;27441;50.860;0.258;2022-12-18T06:03:17;2.10;99.90
41762;DHT22;27441;50.860;0.258;2022-12-18T06:05:44;2.10;99.90
41762;DHT22;27441;50.860;0.258;2022-12-18T06:08:10;2.20;99.90
41762;DHT22;27441;50.860;0.258;2022-12-18T06:10:36;2.30;99.90
41762;DHT22;27441;50.860;0.258;2022-12-18T06:13:01;2.30;99.90
41762;DHT22;27441;50.860;0.258;2022-12-18T06:15:27;2.40;99.90
41762;DHT22;27441;50.860;0.258;2022-12-18T06:17:53;2.30;99.90
41762;DHT22;27441;50.860;0.258;2022-12-18T06:20:19;2.40;99.90
41762;DHT22;27441;50.860;0.258;2022-12-18T06:22:45;2.40;99.90
41762;DHT22;27441;50.860;0.258;2022-12-18T06:25:11;2.30;99.90
41762;DHT22;27441;50.860;0.258;2022-12-18T06:27:37;2.30;99.90
41762;DHT22;27441;50.860;0.258;2022-12-18T06:30:03;2.20;99.90
41762;DHT22;27441;50.860;0.258;2022-12-18T06:32:28;2.30;99.90
41762;DHT22;27441;50.860;0.258;2022-12-18T06:34:54;2.30;99.90
41762;DHT22;27441;50.860;0.258;2022-12-18T06:37:20;2.30;99.90
41762;DHT22;27441;50.860;0.258;2022-12-18T06:39:46;2.40;99.90
41762;DHT22;27441;50.860;0.258;2022-12-18T06:42:12;2.40;99.90
41762;DHT22;27441;50.860;0.258;2022-12-18T06:44:37;2.40;99.90
41762;DHT22;27441;50.860;0.258;2022-12-18T06:47:03;2.50;99.90
41762;DHT22;27441;50.860;0.258;2022-12-18T06:49:29;2.50;99.90
41762;DHT22;27441;50.860;0.258;2022-12-18T06:51:54;2.60;99.90
41762;DHT22;27441;50.860;0.258;2022-12-18T06:54:20;2.70;99.90
41762;DHT22;27441;50.860;0.258;2022-12-18T06:56:45;2.70;99.90
41762;DHT22;27441;50.860;0.258;2022-12-18T06:59:12;2.80;99.90
41762;DHT22;27441;50.860;0.258;2022-12-18T07:01:37;2.80;99.90
41762;DHT22;27441;50.860;0.258;2022-12-18T07:04:03;2.80;99.90
41762;DHT22;27441;50.860;0.258;2022-12-18T07:06:29;2.80;99.90
41762;DHT22;27441;50.860;0.258;2022-12-18T07:08:54;2.80;99.90
41762;DHT22;27441;50.860;0.258;2022-12-18T07:11:20;2.90;99.90
41762;DHT22;27441;50.860;0.258;2022-12-18T07:13:46;2.90;99.90
41762;DHT22;27441;50.860;0.258;2022-12-18T07:16:13;3.00;99.90
41762;DHT22;27441;50.860;0.258;2022-12-18T07:18:39;3.00;99.90
41762;DHT22;27441;50.860;0.258;2022-12-18T07:21:08;3.10;99.90
41762;DHT22;27441;50.860;0.258;2022-12-18T07:23:35;3.10;99.90
41762;DHT22;27441;50.860;0.258;2022-12-18T07:26:03;3.10;99.90
41762;DHT22;27441;50.860;0.258;2022-12-18T07:28:30;3.10;99.90
41762;DHT22;27441;50.860;0.258;2022-12-18T07:30:56;3.00;99.90
41762;DHT22;27441;50.860;0.258;2022-12-18T07:33:21;3.00;99.90
41762;DHT22;27441;50.860;0.258;2022-12-18T07:35:47;3.10;99.90
41762;DHT22;27441;50.860;0.258;2022-12-18T07:38:13;3.10;99.90
41762;DHT22;27441;50.860;0.258;2022-12-18T07:40:38;3.10;99.90
41762;DHT22;27441;50.860;0.258;2022-12-18T07:43:04;3.10;99.90
41762;DHT22;27441;50.860;0.258;2022-12-18T07:45:29;3.10;99.90
41762;DHT22;27441;50.860;0.258;2022-12-18T07:47:55;3.10;99.90
41762;DHT22;27441;50.860;0.258;2022-12-18T07:50:20;3.10;99.90
41762;DHT22;27441;50.860;0.258;2022-12-18T07:52:46;3.20;99.90
41762;DHT22;27441;50.860;0.258;2022-12-18T07:55:12;3.20;99.90
41762;DHT22;27441;50.860;0.258;2022-12-18T07:57:37;3.10;99.90
41762;DHT22;27441;50.860;0.258;2022-12-18T08:00:03;3.10;99.90
41762;DHT22;27441;50.860;0.258;2022-12-18T08:02:30;3.10;99.90
41762;DHT22;27441;50.860;0.258;2022-12-18T08:04:56;3.00;99.90
41762;DHT22;27441;50.860;0.258;2022-12-18T08:07:21;2.90;99.90
41762;DHT22;27441;50.860;0.258;2022-12-18T08:09:47;3.00;99.90
41762;DHT22;27441;50.860;0.258;2022-12-18T08:12:12;3.00;99.90
41762;DHT22;27441;50.860;0.258;2022-12-18T08:14:38;3.10;99.90
41762;DHT22;27441;50.860;0.258;2022-12-18T08:17:03;3.10;99.90
41762;DHT22;27441;50.860;0.258;2022-12-18T08:19:29;3.10;99.90
41762;DHT22;27441;50.860;0.258;2022-12-18T08:21:54;3.00;99.90
41762;DHT22;27441;50.860;0.258;2022-12-18T08:24:20;3.00;99.90
41762;DHT22;27441;50.860;0.258;2022-12-18T08:26:46;3.00;99.90
41762;DHT22;27441;50.860;0.258;2022-12-18T08:29:11;2.90;99.90
41762;DHT22;27441;50.860;0.258;2022-12-18T08:31:37;3.00;99.90
41762;DHT22;27441;50.860;0.258;2022-12-18T08:34:03;3.00;99.90
41762;DHT22;27441;50.860;0.258;2022-12-18T08:36:28;3.00;99.90
41762;DHT22;27441;50.860;0.258;2022-12-18T08:38:54;2.90;99.90
41762;DHT22;27441;50.860;0.258;2022-12-18T08:41:20;2.90;99.90
41762;DHT22;27441;50.860;0.258;2022-12-18T08:43:45;2.80;99.90
41762;DHT22;27441;50.860;0.258;2022-12-18T08:46:36;2.90;99.90
41762;DHT22;27441;50.860;0.258;2022-12-18T08:49:02;2.90;99.90
41762;DHT22;27441;50.860;0.258;2022-12-18T08:51:28;2.90;99.90
41762;DHT22;27441;50.860;0.258;2022-12-18T08:53:54;2.90;99.90
41762;DHT22;27441;50.860;0.258;2022-12-18T08:56:19;2.90;99.90
41762;DHT22;27441;50.860;0.258;2022-12-18T08:58:45;2.90;99.90
41762;DHT22;27441;50.860;0.258;2022-12-18T09:01:11;3.00;99.90
41762;DHT22;27441;50.860;0.258;2022-12-18T09:03:37;3.00;99.90
41762;DHT22;27441;50.860;0.258;2022-12-18T09:06:03;3.00;99.90
41762;DHT22;27441;50.860;0.258;2022-12-18T09:08:29;3.00;99.90
41762;DHT22;27441;50.860;0.258;2022-12-18T09:10:55;3.00;99.90
41762;DHT22;27441;50.860;0.258;2022-12-18T09:13:21;3.00;99.90
41762;DHT22;27441;50.860;0.258;2022-12-18T09:15:47;2.90;99.90
41762;DHT22;27441;50.860;0.258;2022-12-18T09:18:14;2.90;99.90
41762;DHT22;27441;50.860;0.258;2022-12-18T09:20:40;2.90;99.90
41762;DHT22;27441;50.860;0.258;2022-12-18T09:23:05;2.90;99.90
41762;DHT22;27441;50.860;0.258;2022-12-18T09:25:32;2.90;99.90
41762;DHT22;27441;50.860;0.258;2022-12-18T09:28:14;2.90;99.90
41762;DHT22;27441;50.860;0.258;2022-12-18T09:30:47;3.00;99.90
41762;DHT22;27441;50.860;0.258;2022-12-18T09:33:12;3.00;99.90
41762;DHT22;27441;50.860;0.258;2022-12-18T09:35:39;3.00;99.90
41762;DHT22;27441;50.860;0.258;2022-12-18T09:38:05;3.10;99.90
41762;DHT22;27441;50.860;0.258;2022-12-18T09:40:35;3.10;99.90
41762;DHT22;27441;50.860;0.258;2022-12-18T09:43:03;3.10;99.90
41762;DHT22;27441;50.860;0.258;2022-12-18T09:45:35;3.10;99.90
41762;DHT22;27441;50.860;0.258;2022-12-18T09:48:05;3.10;99.90
41762;DHT22;27441;50.860;0.258;2022-12-18T09:50:34;3.10;99.90
41762;DHT22;27441;50.860;0.258;2022-12-18T09:53:02;3.10;99.90
41762;DHT22;27441;50.860;0.258;2022-12-18T09:58:06;3.10;99.90
41762;DHT22;27441;50.860;0.258;2022-12-18T10:00:35;3.00;99.90
41762;DHT22;27441;50.860;0.258;2022-12-18T10:03:03;3.00;99.90
41762;DHT22;27441;50.860;0.258;2022-12-18T10:05:37;3.10;99.90
41762;DHT22;27441;50.860;0.258;2022-12-18T10:08:10;3.20;99.90
41762;DHT22;27441;50.860;0.258;2022-12-18T10:10:48;3.20;99.90
41762;DHT22;27441;50.860;0.258;2022-12-18T10:13:31;3.20;99.90
41762;DHT22;27441;50.860;0.258;2022-12-18T10:21:21;3.30;99.90
41762;DHT22;27441;50.860;0.258;2022-12-18T10:24:01;3.30;99.90
41762;DHT22;27441;50.860;0.258;2022-12-18T10:26:29;3.30;99.90
41762;DHT22;27441;50.860;0.258;2022-12-18T10:28:56;3.40;99.90
41762;DHT22;27441;50.860;0.258;2022-12-18T10:31:23;3.40;99.90
41762;DHT22;27441;50.860;0.258;2022-12-18T10:33:49;3.50;99.90
41762;DHT22;27441;50.860;0.258;2022-12-18T10:36:15;3.50;99.90
41762;DHT22;27441;50.860;0.258;2022-12-18T10:38:41;3.50;99.90
41762;DHT22;27441;50.860;0.258;2022-12-18T10:41:22;3.50;99.90
41762;DHT22;27441;50.860;0.258;2022-12-18T10:44:10;3.50;99.90
41762;DHT22;27441;50.860;0.258;2022-12-18T10:46:37;3.50;99.90
41762;DHT22;27441;50.860;0.258;2022-12-18T10:49:03;3.50;99.90
41762;DHT22;27441;50.860;0.258;2022-12-18T10:51:31;3.50;99.90
41762;DHT22;27441;50.860;0.258;2022-12-18T10:54:05;3.50;99.90
41762;DHT22;27441;50.860;0.258;2022-12-18T10:56:34;3.50;99.90
41762;DHT22;27441;50.860;0.258;2022-12-18T11:01:26;3.50;99.90
41762;DHT22;27441;50.860;0.258;2022-12-18T11:06:19;3.50;99.90
41762;DHT22;27441;50.860;0.258;2022-12-18T11:11:33;3.50;99.90
41762;DHT22;27441;50.860;0.258;2022-12-18T11:14:03;3.50;99.90
41762;DHT22;27441;50.860;0.258;2022-12-18T11:16:29;3.40;99.90
41762;DHT22;27441;50.860;0.258;2022-12-18T11:19:07;3.40;99.90
41762;DHT22;27441;50.860;0.258;2022-12-18T11:21:38;3.40;99.90
41762;DHT22;27441;50.860;0.258;2022-12-18T11:24:04;3.40;99.90
41762;DHT22;27441;50.860;0.258;2022-12-18T11:26:34;3.40;99.90
41762;DHT22;27441;50.860;0.258;2022-12-18T11:29:08;3.40;99.90
41762;DHT22;27441;50.860;0.258;2022-12-18T11:31:34;3.30;99.90
41762;DHT22;27441;50.860;0.258;2022-12-18T11:34:01;3.30;99.90
41762;DHT22;27441;50.860;0.258;2022-12-18T11:36:34;3.30;99.90
41762;DHT22;27441;50.860;0.258;2022-12-18T11:39:04;3.20;99.90
41762;DHT22;27441;50.860;0.258;2022-12-18T11:41:32;3.20;99.90
41762;DHT22;27441;50.860;0.258;2022-12-18T11:44:22;3.20;99.90
41762;DHT22;27441;50.860;0.258;2022-12-18T11:46:51;3.20;99.90
41762;DHT22;27441;50.860;0.258;2022-12-18T11:49:20;3.10;99.90
41762;DHT22;27441;50.860;0.258;2022-12-18T11:54:36;3.10;99.90
41762;DHT22;27441;50.860;0.258;2022-12-18T11:57:05;3.20;99.90
41762;DHT22;27441;50.860;0.258;2022-12-18T12:04:36;3.20;99.90
41762;DHT22;27441;50.860;0.258;2022-12-18T12:07:23;3.30;99.90
41762;DHT22;27441;50.860;0.258;2022-12-18T12:22:54;3.40;99.90
41762;DHT22;27441;50.860;0.258;2022-12-18T12:25:27;3.30;99.90
41762;DHT22;27441;50.860;0.258;2022-12-18T12:33:05;3.40;99.90
41762;DHT22;27441;50.860;0.258;2022-12-18T12:40:32;3.30;99.90
41762;DHT22;27441;50.860;0.258;2022-12-18T12:43:01;3.30;99.90
41762;DHT22;27441;50.860;0.258;2022-12-18T12:45:56;3.40;99.90
41762;DHT22;27441;50.860;0.258;2022-12-18T12:48:47;3.30;99.90
41762;DHT22;27441;50.860;0.258;2022-12-18T12:51:25;3.40;99.90
41762;DHT22;27441;50.860;0.258;2022-12-18T12:53:52;3.40;99.90
41762;DHT22;27441;50.860;0.258;2022-12-18T12:56:20;3.40;99.90
41762;DHT22;27441;50.860;0.258;2022-12-18T12:59:13;3.40;99.90
41762;DHT22;27441;50.860;0.258;2022-12-18T13:01:52;3.40;99.90
41762;DHT22;27441;50.860;0.258;2022-12-18T13:07:31;3.50;99.90
41762;DHT22;27441;50.860;0.258;2022-12-18T13:10:25;3.50;99.90
41762;DHT22;27441;50.860;0.258;2022-12-18T13:12:55;3.50;99.90
41762;DHT22;27441;50.860;0.258;2022-12-18T13:15:29;3.60;99.90
41762;DHT22;27441;50.860;0.258;2022-12-18T13:20:40;3.60;99.90
41762;DHT22;27441;50.860;0.258;2022-12-18T13:34:27;4.00;99.90
41762;DHT22;27441;50.860;0.258;2022-12-18T13:37:36;3.70;99.90
41762;DHT22;27441;50.860;0.258;2022-12-18T13:39:53;3.90;99.90
41762;DHT22;27441;50.860;0.258;2022-12-18T13:42:35;3.80;99.90
41762;DHT22;27441;50.860;0.258;2022-12-18T13:45:43;4.00;99.90
41762;DHT22;27441;50.860;0.258;2022-12-18T13:48:30;4.00;99.90
41762;DHT22;27441;50.860;0.258;2022-12-18T13:51:08;4.00;99.90
41762;DHT22;27441;50.860;0.258;2022-12-18T13:53:51;4.10;99.90
41762;DHT22;27441;50.860;0.258;2022-12-18T13:56:20;4.10;99.90
41762;DHT22;27441;50.860;0.258;2022-12-18T13:59:10;4.10;99.90
41762;DHT22;27441;50.860;0.258;2022-12-18T14:01:36;4.30;99.90
41762;DHT22;27441;50.860;0.258;2022-12-18T14:04:20;4.30;99.90
41762;DHT22;27441;50.860;0.258;2022-12-18T14:06:47;4.30;99.90
41762;DHT22;27441;50.860;0.258;2022-12-18T14:09:16;4.20;99.90
41762;DHT22;27441;50.860;0.258;2022-12-18T14:11:49;4.20;99.90
41762;DHT22;27441;50.860;0.258;2022-12-18T14:14:17;4.30;99.90
41762;DHT22;27441;50.860;0.258;2022-12-18T14:16:43;4.20;99.90
41762;DHT22;27441;50.860;0.258;2022-12-18T14:19:16;4.30;99.90
41762;DHT22;27441;50.860;0.258;2022-12-18T14:21:47;4.30;99.90
41762;DHT22;27441;50.860;0.258;2022-12-18T14:26:41;4.40;99.90
41762;DHT22;27441;50.860;0.258;2022-12-18T14:29:25;4.30;99.90
41762;DHT22;27441;50.860;0.258;2022-12-18T14:32:14;4.50;99.90
41762;DHT22;27441;50.860;0.258;2022-12-18T14:34:43;4.50;99.90
41762;DHT22;27441;50.860;0.258;2022-12-18T14:37:14;4.60;99.90
41762;DHT22;27441;50.860;0.258;2022-12-18T14:39:40;4.50;99.90
41762;DHT22;27441;50.860;0.258;2022-12-18T14:42:17;4.50;99.90
41762;DHT22;27441;50.860;0.258;2022-12-18T14:44:43;4.50;99.90
41762;DHT22;27441;50.860;0.258;2022-12-18T14:47:14;4.50;99.90
41762;DHT22;27441;50.860;0.258;2022-12-18T14:49:41;4.60;99.90
41762;DHT22;27441;50.860;0.258;2022-12-18T14:52:26;4.70;99.90
41762;DHT22;27441;50.860;0.258;2022-12-18T14:54:53;4.80;99.90
41762;DHT22;27441;50.860;0.258;2022-12-18T14:57:35;4.90;99.90
41762;DHT22;27441;50.860;0.258;2022-12-18T15:00:16;4.80;99.90
41762;DHT22;27441;50.860;0.258;2022-12-18T15:02:43;4.90;99.90
41762;DHT22;27441;50.860;0.258;2022-12-18T15:07:46;5.00;99.90
41762;DHT22;27441;50.860;0.258;2022-12-18T15:10:24;5.10;99.90
41762;DHT22;27441;50.860;0.258;2022-12-18T15:20:48;5.20;99.90
41762;DHT22;27441;50.860;0.258;2022-12-18T15:25:44;5.30;99.90
41762;DHT22;27441;50.860;0.258;2022-12-18T15:28:44;5.40;99.90
41762;DHT22;27441;50.860;0.258;2022-12-18T15:33:42;5.50;99.90
41762;DHT22;27441;50.860;0.258;2022-12-18T15:36:20;5.40;99.90
41762;DHT22;27441;50.860;0.258;2022-12-18T15:38:50;5.50;99.90
41762;DHT22;27441;50.860;0.258;2022-12-18T15:41:18;5.40;99.90
41762;DHT22;27441;50.860;0.258;2022-12-18T15:43:45;5.50;99.90
41762;DHT22;27441;50.860;0.258;2022-12-18T15:46:13;5.50;99.90
41762;DHT22;27441;50.860;0.258;2022-12-18T15:48:45;5.60;99.90
41762;DHT22;27441;50.860;0.258;2022-12-18T15:53:46;5.60;99.90
41762;DHT22;27441;50.860;0.258;2022-12-18T15:56:14;5.70;99.90
41762;DHT22;27441;50.860;0.258;2022-12-18T15:58:59;5.70;99.90
41762;DHT22;27441;50.860;0.258;2022-12-18T16:01:30;5.60;99.90
41762;DHT22;27441;50.860;0.258;2022-12-18T16:03:57;5.60;99.90
41762;DHT22;27441;50.860;0.258;2022-12-18T16:06:23;5.70;99.90
41762;DHT22;27441;50.860;0.258;2022-12-18T16:08:49;5.70;99.90
41762;DHT22;27441;50.860;0.258;2022-12-18T16:14:22;5.60;99.90
41762;DHT22;27441;50.860;0.258;2022-12-18T16:16:51;5.70;99.90
41762;DHT22;27441;50.860;0.258;2022-12-18T16:19:18;5.70;99.90
41762;DHT22;27441;50.860;0.258;2022-12-18T16:21:45;5.70;99.90
41762;DHT22;27441;50.860;0.258;2022-12-18T16:24:20;5.70;99.90
41762;DHT22;27441;50.860;0.258;2022-12-18T16:26:49;5.70;99.90
41762;DHT22;27441;50.860;0.258;2022-12-18T16:29:17;5.80;99.90
41762;DHT22;27441;50.860;0.258;2022-12-18T16:31:44;5.80;99.90
41762;DHT22;27441;50.860;0.258;2022-12-18T16:34:21;5.90;99.90
41762;DHT22;27441;50.860;0.258;2022-12-18T16:36:48;5.90;99.90
41762;DHT22;27441;50.860;0.258;2022-12-18T16:39:14;5.90;99.90
41762;DHT22;27441;50.860;0.258;2022-12-18T16:41:40;5.80;99.90
41762;DHT22;27441;50.860;0.258;2022-12-18T16:44:06;5.90;99.90
41762;DHT22;27441;50.860;0.258;2022-12-18T16:46:32;5.80;99.90
41762;DHT22;27441;50.860;0.258;2022-12-18T16:48:58;5.90;99.90
41762;DHT22;27441;50.860;0.258;2022-12-18T16:51:28;5.90;99.90
41762;DHT22;27441;50.860;0.258;2022-12-18T16:53:55;5.90;99.90
41762;DHT22;27441;50.860;0.258;2022-12-18T16:56:21;5.90;99.90
41762;DHT22;27441;50.860;0.258;2022-12-18T16:58:54;5.90;99.90
41762;DHT22;27441;50.860;0.258;2022-12-18T17:01:20;5.80;99.90
41762;DHT22;27441;50.860;0.258;2022-12-18T17:04:01;5.80;99.90
41762;DHT22;27441;50.860;0.258;2022-12-18T17:06:29;5.80;99.90
41762;DHT22;27441;50.860;0.258;2022-12-18T17:08:59;5.80;99.90
41762;DHT22;27441;50.860;0.258;2022-12-18T17:11:26;5.80;99.90
41762;DHT22;27441;50.860;0.258;2022-12-18T17:13:53;5.80;99.90
41762;DHT22;27441;50.860;0.258;2022-12-18T17:16:20;5.80;99.90
41762;DHT22;27441;50.860;0.258;2022-12-18T17:18:46;5.90;99.90
41762;DHT22;27441;50.860;0.258;2022-12-18T17:21:12;5.90;99.90
41762;DHT22;27441;50.860;0.258;2022-12-18T17:23:40;5.90;99.90
41762;DHT22;27441;50.860;0.258;2022-12-18T17:26:06;5.60;99.90
41762;DHT22;27441;50.860;0.258;2022-12-18T17:28:33;5.60;99.90
41762;DHT22;27441;50.860;0.258;2022-12-18T17:30:59;5.70;99.90
41762;DHT22;27441;50.860;0.258;2022-12-18T17:33:26;5.60;99.90
41762;DHT22;27441;50.860;0.258;2022-12-18T17:35:52;5.90;99.90
41762;DHT22;27441;50.860;0.258;2022-12-18T17:38:18;5.90;99.90
41762;DHT22;27441;50.860;0.258;2022-12-18T17:40:44;5.80;99.90
41762;DHT22;27441;50.860;0.258;2022-12-18T17:43:10;5.80;99.90
41762;DHT22;27441;50.860;0.258;2022-12-18T17:45:39;5.90;99.90